Actual water levels and discharges of Morava river

Lanžhot

Date and time (UTC) H (cm) Q (m³/s)
28. 9. 2022 14:40 54 29.6
28. 9. 2022 14:00 54 30
28. 9. 2022 13:00 55 30
28. 9. 2022 12:00 55 30
28. 9. 2022 11:00 57 31
28. 9. 2022 10:00 57 31
28. 9. 2022 09:00 57 31
28. 9. 2022 08:00 57 31
28. 9. 2022 07:00 55 30
28. 9. 2022 06:00 55 30
28. 9. 2022 05:00 54 30
28. 9. 2022 04:00 52 29
28. 9. 2022 03:00 52 29
28. 9. 2022 02:00 50 28

H - water level, Q - discharge

Strážnice

Date and time (UTC) H (cm) Q (m³/s)
28. 9. 2022 14:40 128 28
28. 9. 2022 14:00 128 28
28. 9. 2022 13:00 128 28
28. 9. 2022 12:00 129 29
28. 9. 2022 11:00 130 29
28. 9. 2022 10:00 130 29
28. 9. 2022 09:00 131 30
28. 9. 2022 08:00 131 30
28. 9. 2022 07:00 132 30
28. 9. 2022 06:00 132 30
28. 9. 2022 05:00 132 30
28. 9. 2022 04:00 132 30
28. 9. 2022 03:00 133 31
28. 9. 2022 02:00 133 31

H - water level, Q - discharge
more information

Spytihněv

Date and time (UTC) H (cm) Q (m³/s)
28. 9. 2022 14:40 129 32.1
28. 9. 2022 14:00 128 32
28. 9. 2022 13:00 123 28
28. 9. 2022 12:00 116 24
28. 9. 2022 11:00 115 23
28. 9. 2022 10:00 114 23
28. 9. 2022 09:00 110 20
28. 9. 2022 08:00 111 21
28. 9. 2022 07:00 114 23
28. 9. 2022 06:00 113 22
28. 9. 2022 05:00 110 20
28. 9. 2022 04:00 113 22
28. 9. 2022 03:00 120 26
28. 9. 2022 02:00 118 25

H - water level, Q - discharge

Kroměříž

Date and time (UTC) H (cm) Q (m³/s)
28. 9. 2022 14:40 162 36.8
28. 9. 2022 14:00 163 38
28. 9. 2022 13:00 160 35
28. 9. 2022 12:00 155 31
28. 9. 2022 11:00 150 28
28. 9. 2022 10:00 148 26
28. 9. 2022 09:00 146 25
28. 9. 2022 08:00 145 24
28. 9. 2022 07:00 144 23
28. 9. 2022 06:00 144 23
28. 9. 2022 05:00 145 24
28. 9. 2022 04:00 145 24
28. 9. 2022 03:00 146 25
28. 9. 2022 02:00 147 26

H - water level, Q - discharge
more information

Olomouc-Nové Sady tok

Date and time (UTC) H (cm) Q (m³/s)
28. 9. 2022 14:40 90 8.5
28. 9. 2022 14:00 90 9
28. 9. 2022 13:00 90 9
28. 9. 2022 12:00 90 9
28. 9. 2022 11:00 90 9
28. 9. 2022 10:00 90 9
28. 9. 2022 09:00 90 9
28. 9. 2022 08:00 90 9
28. 9. 2022 07:00 90 9
28. 9. 2022 06:00 92 9
28. 9. 2022 05:00 92 9
28. 9. 2022 04:00 92 9
28. 9. 2022 03:00 92 9
28. 9. 2022 02:00 92 9

H - water level, Q - discharge

Moravičany

Date and time (UTC) H (cm) Q (m³/s)
28. 9. 2022 14:40 82 6.4
28. 9. 2022 14:00 83 7
28. 9. 2022 13:00 83 7
28. 9. 2022 12:00 83 7
28. 9. 2022 11:00 84 7
28. 9. 2022 10:00 83 7
28. 9. 2022 09:00 84 7
28. 9. 2022 08:00 83 7
28. 9. 2022 07:00 83 7
28. 9. 2022 06:00 83 7
28. 9. 2022 05:00 83 7
28. 9. 2022 04:00 82 6
28. 9. 2022 03:00 82 6
28. 9. 2022 02:00 82 6

H - water level, Q - discharge
Source data
Labe Basin Vltava Basin Povodí Moravy ČHMÚ